sensor_id;sensor_type;location;lat;lon;timestamp;pressure;altitude;pressure_sealevel;temperature;humidity
52745;BME280;38637;49.984;20.426;2023-10-13T00:02:10;99440.63;;;16.73;95.49
52745;BME280;38637;49.984;20.426;2023-10-13T00:04:35;99436.84;;;16.69;95.53
52745;BME280;38637;49.984;20.426;2023-10-13T00:07:02;99436.53;;;16.70;95.50
52745;BME280;38637;49.984;20.426;2023-10-13T00:09:28;99433.75;;;16.70;95.98
52745;BME280;38637;49.984;20.426;2023-10-13T00:12:06;99434.69;;;16.66;95.97
52745;BME280;38637;49.984;20.426;2023-10-13T00:14:35;99427.97;;;16.72;95.75
52745;BME280;38637;49.984;20.426;2023-10-13T00:17:05;99429.59;;;16.73;95.45
52745;BME280;38637;49.984;20.426;2023-10-13T00:19:34;99426.31;;;16.71;95.61
52745;BME280;38637;49.984;20.426;2023-10-13T00:22:07;99427.66;;;16.73;95.25
52745;BME280;38637;49.984;20.426;2023-10-13T00:24:40;99425.44;;;16.75;95.13
52745;BME280;38637;49.984;20.426;2023-10-13T00:27:14;99422.38;;;16.77;95.02
52745;BME280;38637;49.984;20.426;2023-10-13T00:29:59;99424.06;;;16.73;95.38
52745;BME280;38637;49.984;20.426;2023-10-13T00:32:48;99425.22;;;16.72;95.41
52745;BME280;38637;49.984;20.426;2023-10-13T00:35:20;99432.94;;;16.70;95.44
52745;BME280;38637;49.984;20.426;2023-10-13T00:38:15;99425.81;;;16.69;95.38
52745;BME280;38637;49.984;20.426;2023-10-13T00:40:44;99429.06;;;16.71;95.67
52745;BME280;38637;49.984;20.426;2023-10-13T00:43:17;99427.97;;;16.72;95.31
52745;BME280;38637;49.984;20.426;2023-10-13T00:45:51;99427.91;;;16.77;95.11
52745;BME280;38637;49.984;20.426;2023-10-13T00:48:27;99421.03;;;16.74;95.44
52745;BME280;38637;49.984;20.426;2023-10-13T00:51:01;99430.41;;;16.73;95.14
52745;BME280;38637;49.984;20.426;2023-10-13T00:53:36;99427.66;;;16.73;94.71
52745;BME280;38637;49.984;20.426;2023-10-13T00:56:08;99420.47;;;16.77;94.74
52745;BME280;38637;49.984;20.426;2023-10-13T00:58:43;99426.78;;;16.78;94.81
52745;BME280;38637;49.984;20.426;2023-10-13T01:01:09;99423.22;;;16.77;94.70
52745;BME280;38637;49.984;20.426;2023-10-13T01:03:52;99422.94;;;16.74;94.69
52745;BME280;38637;49.984;20.426;2023-10-13T01:06:21;99427.66;;;16.73;94.75
52745;BME280;38637;49.984;20.426;2023-10-13T01:09:03;99430.72;;;16.72;94.97
52745;BME280;38637;49.984;20.426;2023-10-13T01:11:46;99418.34;;;16.69;95.05
52745;BME280;38637;49.984;20.426;2023-10-13T01:14:19;99424.41;;;16.71;95.13
52745;BME280;38637;49.984;20.426;2023-10-13T01:16:46;99421.91;;;16.70;95.09
52745;BME280;38637;49.984;20.426;2023-10-13T01:19:16;99416.41;;;16.70;95.11
52745;BME280;38637;49.984;20.426;2023-10-13T01:21:49;99418.94;;;16.66;95.35
52745;BME280;38637;49.984;20.426;2023-10-13T01:24:15;99423.66;;;16.66;95.59
52745;BME280;38637;49.984;20.426;2023-10-13T01:26:45;99418.13;;;16.66;95.68
52745;BME280;38637;49.984;20.426;2023-10-13T01:29:16;99420.28;;;16.69;95.50
52745;BME280;38637;49.984;20.426;2023-10-13T01:31:44;99422.25;;;16.68;95.59
52745;BME280;38637;49.984;20.426;2023-10-13T01:34:14;99412.31;;;16.67;95.70
52745;BME280;38637;49.984;20.426;2023-10-13T01:36:45;99415.06;;;16.67;96.00
52745;BME280;38637;49.984;20.426;2023-10-13T01:39:10;99411.81;;;16.65;96.32
52745;BME280;38637;49.984;20.426;2023-10-13T01:41:37;99411.81;;;16.65;96.48
52745;BME280;38637;49.984;20.426;2023-10-13T01:44:04;99417.31;;;16.65;96.73
52745;BME280;38637;49.984;20.426;2023-10-13T01:46:30;99404.34;;;16.66;96.45
52745;BME280;38637;49.984;20.426;2023-10-13T01:48:55;99410.47;;;16.63;96.44
52745;BME280;38637;49.984;20.426;2023-10-13T01:51:22;99401.47;;;16.57;96.71
52745;BME280;38637;49.984;20.426;2023-10-13T01:53:53;99404.59;;;16.50;97.42
52745;BME280;38637;49.984;20.426;2023-10-13T01:56:21;99403.78;;;16.50;96.88
52745;BME280;38637;49.984;20.426;2023-10-13T01:58:48;99407.63;;;16.49;96.70
52745;BME280;38637;49.984;20.426;2023-10-13T02:01:14;99411.81;;;16.46;96.35
52745;BME280;38637;49.984;20.426;2023-10-13T02:03:51;99407.75;;;16.44;95.93
52745;BME280;38637;49.984;20.426;2023-10-13T02:06:26;99407.00;;;16.38;95.57
52745;BME280;38637;49.984;20.426;2023-10-13T02:08:57;99407.59;;;16.35;95.34
52745;BME280;38637;49.984;20.426;2023-10-13T02:11:23;99397.16;;;16.32;95.18
52745;BME280;38637;49.984;20.426;2023-10-13T02:13:49;99396.63;;;16.30;95.04
52745;BME280;38637;49.984;20.426;2023-10-13T02:16:18;99389.56;;;16.24;94.68
52745;BME280;38637;49.984;20.426;2023-10-13T02:18:46;99396.22;;;16.23;94.42
52745;BME280;38637;49.984;20.426;2023-10-13T02:21:16;99390.97;;;16.21;94.41
52745;BME280;38637;49.984;20.426;2023-10-13T02:23:42;99388.53;;;16.20;94.43
52745;BME280;38637;49.984;20.426;2023-10-13T02:26:12;99385.25;;;16.18;94.25
52745;BME280;38637;49.984;20.426;2023-10-13T02:28:41;99385.56;;;16.16;94.60
52745;BME280;38637;49.984;20.426;2023-10-13T02:31:07;99389.94;;;16.17;94.74
52745;BME280;38637;49.984;20.426;2023-10-13T02:33:33;99386.16;;;16.13;95.00
52745;BME280;38637;49.984;20.426;2023-10-13T02:36:00;99396.59;;;16.16;95.03
52745;BME280;38637;49.984;20.426;2023-10-13T02:38:29;99389.94;;;16.17;95.14
52745;BME280;38637;49.984;20.426;2023-10-13T02:41:15;99388.81;;;16.18;95.18
52745;BME280;38637;49.984;20.426;2023-10-13T02:43:54;99381.09;;;16.20;95.35
52745;BME280;38637;49.984;20.426;2023-10-13T02:46:20;99378.03;;;16.22;95.15
52745;BME280;38637;49.984;20.426;2023-10-13T02:48:53;99378.03;;;16.22;95.05
52745;BME280;38637;49.984;20.426;2023-10-13T02:51:20;99368.72;;;16.18;95.07
52745;BME280;38637;49.984;20.426;2023-10-13T02:54:01;99377.53;;;16.20;95.03
52745;BME280;38637;49.984;20.426;2023-10-13T02:56:35;99373.69;;;16.16;95.13
52745;BME280;38637;49.984;20.426;2023-10-13T02:59:02;99382.81;;;16.16;95.00
52745;BME280;38637;49.984;20.426;2023-10-13T03:01:34;99383.41;;;16.13;94.65
52745;BME280;38637;49.984;20.426;2023-10-13T03:04:03;99383.69;;;16.12;94.85
52745;BME280;38637;49.984;20.426;2023-10-13T03:06:29;99381.25;;;16.10;94.63
52745;BME280;38637;49.984;20.426;2023-10-13T03:09:17;99387.34;;;16.07;94.46
52745;BME280;38637;49.984;20.426;2023-10-13T03:11:44;99383.25;;;16.04;94.33
52745;BME280;38637;49.984;20.426;2023-10-13T03:14:14;99387.09;;;16.03;94.03
52745;BME280;38637;49.984;20.426;2023-10-13T03:16:56;99386.88;;;16.00;94.41
52745;BME280;38637;49.984;20.426;2023-10-13T03:19:30;99390.22;;;15.97;93.95
52745;BME280;38637;49.984;20.426;2023-10-13T03:22:07;99396.88;;;15.96;94.17
52745;BME280;38637;49.984;20.426;2023-10-13T03:24:38;99392.47;;;15.95;94.63
52745;BME280;38637;49.984;20.426;2023-10-13T03:27:10;99388.38;;;15.92;95.06
52745;BME280;38637;49.984;20.426;2023-10-13T03:29:40;99388.38;;;15.92;95.06
52745;BME280;38637;49.984;20.426;2023-10-13T03:32:12;99382.06;;;15.92;95.20
52745;BME280;38637;49.984;20.426;2023-10-13T03:34:39;99383.47;;;15.89;94.91
52745;BME280;38637;49.984;20.426;2023-10-13T03:37:36;99387.31;;;15.88;94.75
52745;BME280;38637;49.984;20.426;2023-10-13T03:40:11;99392.00;;;15.88;94.91
52745;BME280;38637;49.984;20.426;2023-10-13T03:42:46;99393.34;;;15.90;95.40
52745;BME280;38637;49.984;20.426;2023-10-13T03:45:34;99385.91;;;15.91;95.89
52745;BME280;38637;49.984;20.426;2023-10-13T03:48:08;99394.13;;;15.96;96.24
52745;BME280;38637;49.984;20.426;2023-10-13T03:50:38;99397.41;;;15.98;96.27
52745;BME280;38637;49.984;20.426;2023-10-13T03:53:27;99391.59;;;15.99;96.51
52745;BME280;38637;49.984;20.426;2023-10-13T03:55:53;99398.44;;;16.02;96.60
52745;BME280;38637;49.984;20.426;2023-10-13T03:58:39;99401.41;;;16.05;96.74
52745;BME280;38637;49.984;20.426;2023-10-13T04:01:07;99399.47;;;16.06;96.86
52745;BME280;38637;49.984;20.426;2023-10-13T04:03:41;99390.59;;;16.09;96.76
52745;BME280;38637;49.984;20.426;2023-10-13T04:06:25;99399.41;;;16.11;96.92
52745;BME280;38637;49.984;20.426;2023-10-13T04:09:13;99391.97;;;16.12;96.79
52745;BME280;38637;49.984;20.426;2023-10-13T04:12:06;99391.41;;;16.09;96.94
52745;BME280;38637;49.984;20.426;2023-10-13T04:14:40;99384.81;;;16.11;96.81
52745;BME280;38637;49.984;20.426;2023-10-13T04:17:24;99389.50;;;16.10;96.73
52745;BME280;38637;49.984;20.426;2023-10-13T04:19:58;99385.09;;;16.09;96.22
52745;BME280;38637;49.984;20.426;2023-10-13T04:22:36;99387.84;;;16.09;96.03
52745;BME280;38637;49.984;20.426;2023-10-13T04:25:27;99389.50;;;16.10;95.95
52745;BME280;38637;49.984;20.426;2023-10-13T04:28:09;99398.59;;;16.11;95.88
52745;BME280;38637;49.984;20.426;2023-10-13T04:30:37;99404.69;;;16.07;96.00
52745;BME280;38637;49.984;20.426;2023-10-13T04:33:18;99403.03;;;16.06;95.90
52745;BME280;38637;49.984;20.426;2023-10-13T04:36:15;99398.72;;;16.00;96.43
52745;BME280;38637;49.984;20.426;2023-10-13T04:38:57;99403.72;;;15.98;96.52
52745;BME280;38637;49.984;20.426;2023-10-13T04:41:27;99409.22;;;15.98;96.67
52745;BME280;38637;49.984;20.426;2023-10-13T04:44:26;99413.38;;;15.96;97.14
52745;BME280;38637;49.984;20.426;2023-10-13T04:47:06;99415.03;;;15.97;97.14
52745;BME280;38637;49.984;20.426;2023-10-13T04:49:39;99399.63;;;15.96;96.52
52745;BME280;38637;49.984;20.426;2023-10-13T04:52:05;99398.59;;;15.92;96.71
52745;BME280;38637;49.984;20.426;2023-10-13T04:54:52;99399.19;;;15.89;96.44
52745;BME280;38637;49.984;20.426;2023-10-13T04:57:24;99407.72;;;15.87;96.45
52745;BME280;38637;49.984;20.426;2023-10-13T05:00:09;99404.44;;;15.85;96.43
52745;BME280;38637;49.984;20.426;2023-10-13T05:02:44;99415.97;;;15.87;96.65
52745;BME280;38637;49.984;20.426;2023-10-13T05:05:25;99415.97;;;15.87;96.52
52745;BME280;38637;49.984;20.426;2023-10-13T05:07:51;99428.94;;;15.87;96.15
52745;BME280;38637;49.984;20.426;2023-10-13T05:10:36;99426.22;;;15.81;96.14
52745;BME280;38637;49.984;20.426;2023-10-13T05:13:20;99434.81;;;15.80;96.27
52745;BME280;38637;49.984;20.426;2023-10-13T05:16:04;99433.75;;;15.76;96.52
52745;BME280;38637;49.984;20.426;2023-10-13T05:18:48;99435.69;;;15.75;96.56
52745;BME280;38637;49.984;20.426;2023-10-13T05:21:32;99436.22;;;15.77;96.84
52745;BME280;38637;49.984;20.426;2023-10-13T05:24:16;99437.34;;;15.76;96.90
52745;BME280;38637;49.984;20.426;2023-10-13T05:26:59;99434.59;;;15.76;97.34
52745;BME280;38637;49.984;20.426;2023-10-13T05:29:45;99432.66;;;15.77;97.37
52745;BME280;38637;49.984;20.426;2023-10-13T05:32:29;99423.63;;;15.71;97.47
52745;BME280;38637;49.984;20.426;2023-10-13T05:35:14;99425.03;;;15.69;97.64
52745;BME280;38637;49.984;20.426;2023-10-13T05:37:58;99444.75;;;15.76;98.04
52745;BME280;38637;49.984;20.426;2023-10-13T05:40:58;99447.50;;;15.76;98.10
52745;BME280;38637;49.984;20.426;2023-10-13T05:43:43;99449.38;;;15.80;98.07
52745;BME280;38637;49.984;20.426;2023-10-13T05:46:27;99445.81;;;15.80;98.44
52745;BME280;38637;49.984;20.426;2023-10-13T05:48:53;99461.53;;;15.79;98.68
52745;BME280;38637;49.984;20.426;2023-10-13T05:51:29;99460.69;;;15.79;99.01
52745;BME280;38637;49.984;20.426;2023-10-13T05:54:04;99471.41;;;15.80;99.21
52745;BME280;38637;49.984;20.426;2023-10-13T05:56:46;99464.78;;;15.81;98.95
52745;BME280;38637;49.984;20.426;2023-10-13T05:59:31;99464.72;;;15.87;99.12
52745;BME280;38637;49.984;20.426;2023-10-13T06:02:17;99469.06;;;15.93;99.37
52745;BME280;38637;49.984;20.426;2023-10-13T06:05:02;99471.44;;;15.99;99.65
52745;BME280;38637;49.984;20.426;2023-10-13T06:07:46;99474.16;;;16.04;99.60
52745;BME280;38637;49.984;20.426;2023-10-13T06:10:30;99477.41;;;16.06;99.58
52745;BME280;38637;49.984;20.426;2023-10-13T06:13:14;99479.56;;;16.09;99.60
52745;BME280;38637;49.984;20.426;2023-10-13T06:15:58;99475.78;;;16.05;99.63
52745;BME280;38637;49.984;20.426;2023-10-13T06:18:41;99483.09;;;16.15;99.56
52745;BME280;38637;49.984;20.426;2023-10-13T06:21:25;99485.25;;;16.18;99.44
52745;BME280;38637;49.984;20.426;2023-10-13T06:24:09;99488.53;;;16.20;99.59
52745;BME280;38637;49.984;20.426;2023-10-13T06:26:53;99488.75;;;16.24;99.48
52745;BME280;38637;49.984;20.426;2023-10-13T06:29:37;99483.78;;;16.26;99.28
52745;BME280;38637;49.984;20.426;2023-10-13T06:32:02;99485.94;;;16.29;99.26
52745;BME280;38637;49.984;20.426;2023-10-13T06:34:35;99484.00;;;16.29;99.53
52745;BME280;38637;49.984;20.426;2023-10-13T06:37:13;99479.84;;;16.32;99.50
52745;BME280;38637;49.984;20.426;2023-10-13T06:39:49;99491.09;;;16.36;99.28
52745;BME280;38637;49.984;20.426;2023-10-13T06:42:14;99484.66;;;16.40;99.26
52745;BME280;38637;49.984;20.426;2023-10-13T06:44:41;99482.75;;;16.41;99.36
52745;BME280;38637;49.984;20.426;2023-10-13T06:47:10;99486.84;;;16.43;99.17
52745;BME280;38637;49.984;20.426;2023-10-13T06:49:37;99482.66;;;16.46;99.10
52745;BME280;38637;49.984;20.426;2023-10-13T06:52:04;99487.91;;;16.47;98.87
52745;BME280;38637;49.984;20.426;2023-10-13T06:54:35;99492.81;;;16.50;99.24
52745;BME280;38637;49.984;20.426;2023-10-13T06:57:01;99493.31;;;16.52;99.39
52745;BME280;38637;49.984;20.426;2023-10-13T06:59:29;99491.09;;;16.54;99.35
52745;BME280;38637;49.984;20.426;2023-10-13T07:01:58;99503.75;;;16.55;99.48
52745;BME280;38637;49.984;20.426;2023-10-13T07:04:30;99500.19;;;16.55;99.78
52745;BME280;38637;49.984;20.426;2023-10-13T07:06:55;99505.63;;;16.60;100.00
52745;BME280;38637;49.984;20.426;2023-10-13T07:09:21;99507.56;;;16.60;100.00
52745;BME280;38637;49.984;20.426;2023-10-13T07:12:03;99511.13;;;16.60;100.00
52745;BME280;38637;49.984;20.426;2023-10-13T07:14:34;99505.91;;;16.59;100.00
52745;BME280;38637;49.984;20.426;2023-10-13T07:17:04;99513.06;;;16.60;100.00
52745;BME280;38637;49.984;20.426;2023-10-13T07:19:30;99510.81;;;16.62;100.00
52745;BME280;38637;49.984;20.426;2023-10-13T07:21:59;99520.44;;;16.64;100.00
52745;BME280;38637;49.984;20.426;2023-10-13T07:24:29;99515.16;;;16.68;100.00
52745;BME280;38637;49.984;20.426;2023-10-13T07:26:58;99515.69;;;16.70;100.00
52745;BME280;38637;49.984;20.426;2023-10-13T07:29:28;99511.50;;;16.72;100.00
52745;BME280;38637;49.984;20.426;2023-10-13T07:31:54;99515.63;;;16.75;100.00
52745;BME280;38637;49.984;20.426;2023-10-13T07:34:19;99507.34;;;16.75;100.00
52745;BME280;38637;49.984;20.426;2023-10-13T07:36:57;99516.13;;;16.77;100.00
52745;BME280;38637;49.984;20.426;2023-10-13T07:39:29;99513.91;;;16.79;100.00
52745;BME280;38637;49.984;20.426;2023-10-13T07:41:59;99509.75;;;16.82;100.00
52745;BME280;38637;49.984;20.426;2023-10-13T07:44:35;99517.69;;;16.83;100.00
52745;BME280;38637;49.984;20.426;2023-10-13T07:47:02;99512.13;;;16.88;100.00
52745;BME280;38637;49.984;20.426;2023-10-13T07:49:35;99504.38;;;16.90;100.00
52745;BME280;38637;49.984;20.426;2023-10-13T07:52:02;99511.72;;;16.95;100.00
52745;BME280;38637;49.984;20.426;2023-10-13T07:54:48;99507.28;;;16.99;100.00
52745;BME280;38637;49.984;20.426;2023-10-13T07:57:32;99509.44;;;17.02;100.00
52745;BME280;38637;49.984;20.426;2023-10-13T07:59:57;99470.81;;;16.83;100.00
52745;BME280;38637;49.984;20.426;2023-10-13T08:02:36;99504.63;;;17.08;100.00
52745;BME280;38637;49.984;20.426;2023-10-13T08:05:14;99510.88;;;17.13;100.00
52745;BME280;38637;49.984;20.426;2023-10-13T08:07:49;99505.69;;;17.12;100.00
52745;BME280;38637;49.984;20.426;2023-10-13T08:10:21;99500.06;;;17.17;100.00
52745;BME280;38637;49.984;20.426;2023-10-13T08:12:52;99506.09;;;17.19;100.00
52745;BME280;38637;49.984;20.426;2023-10-13T08:15:19;99498.34;;;17.21;100.00
52745;BME280;38637;49.984;20.426;2023-10-13T08:17:58;99502.94;;;17.26;100.00
52745;BME280;38637;49.984;20.426;2023-10-13T08:20:24;99500.38;;;17.29;100.00
52745;BME280;38637;49.984;20.426;2023-10-13T08:22:55;99500.03;;;17.36;100.00
52745;BME280;38637;49.984;20.426;2023-10-13T08:25:39;99490.19;;;17.43;100.00
52745;BME280;38637;49.984;20.426;2023-10-13T08:28:22;99487.03;;;17.50;100.00
52745;BME280;38637;49.984;20.426;2023-10-13T08:31:06;99477.25;;;17.58;100.00
52745;BME280;38637;49.984;20.426;2023-10-13T08:33:54;99480.94;;;17.67;100.00
52745;BME280;38637;49.984;20.426;2023-10-13T08:36:32;99474.69;;;17.75;100.00
52745;BME280;38637;49.984;20.426;2023-10-13T08:38:58;99487.09;;;17.91;100.00
52745;BME280;38637;49.984;20.426;2023-10-13T08:41:41;99486.06;;;18.01;100.00
52745;BME280;38637;49.984;20.426;2023-10-13T08:44:25;99484.84;;;18.07;100.00
52745;BME280;38637;49.984;20.426;2023-10-13T08:46:58;99490.28;;;18.12;100.00
52745;BME280;38637;49.984;20.426;2023-10-13T08:49:29;99490.94;;;18.18;100.00
52745;BME280;38637;49.984;20.426;2023-10-13T08:51:56;99490.25;;;18.26;100.00
52745;BME280;38637;49.984;20.426;2023-10-13T08:54:53;99483.28;;;18.29;100.00
52745;BME280;38637;49.984;20.426;2023-10-13T08:57:37;99483.56;;;18.41;100.00
52745;BME280;38637;49.984;20.426;2023-10-13T09:00:03;99483.13;;;18.48;100.00
52745;BME280;38637;49.984;20.426;2023-10-13T09:02:47;99475.03;;;18.51;98.50
52745;BME280;38637;49.984;20.426;2023-10-13T09:05:25;99477.69;;;18.56;98.22
52745;BME280;38637;49.984;20.426;2023-10-13T09:08:07;99475.28;;;18.64;97.18
52745;BME280;38637;49.984;20.426;2023-10-13T09:10:41;99483.19;;;18.70;95.82
52745;BME280;38637;49.984;20.426;2023-10-13T09:13:35;99472.50;;;18.77;95.99
52745;BME280;38637;49.984;20.426;2023-10-13T09:16:10;99477.94;;;18.82;95.30
52745;BME280;38637;49.984;20.426;2023-10-13T09:18:42;99479.22;;;18.85;94.48
52745;BME280;38637;49.984;20.426;2023-10-13T09:21:11;99473.06;;;18.88;94.41
52745;BME280;38637;49.984;20.426;2023-10-13T09:24:09;99476.06;;;18.92;94.38
52745;BME280;38637;49.984;20.426;2023-10-13T09:26:50;99480.97;;;18.95;94.06
52745;BME280;38637;49.984;20.426;2023-10-13T09:29:21;99479.19;;;18.99;93.51
52745;BME280;38637;49.984;20.426;2023-10-13T09:31:49;99472.31;;;18.96;91.91
52745;BME280;38637;49.984;20.426;2023-10-13T09:34:25;99472.31;;;18.96;91.12
52745;BME280;38637;49.984;20.426;2023-10-13T09:36:57;99459.94;;;18.94;89.68
52745;BME280;38637;49.984;20.426;2023-10-13T09:39:24;99463.72;;;18.98;87.60
52745;BME280;38637;49.984;20.426;2023-10-13T09:41:59;99458.50;;;18.96;87.18
52745;BME280;38637;49.984;20.426;2023-10-13T09:44:26;99455.09;;;18.99;86.92
52745;BME280;38637;49.984;20.426;2023-10-13T09:47:00;99454.47;;;19.02;87.55
52745;BME280;38637;49.984;20.426;2023-10-13T09:49:35;99448.63;;;19.04;85.84
52745;BME280;38637;49.984;20.426;2023-10-13T09:52:23;99449.28;;;19.10;86.01
52745;BME280;38637;49.984;20.426;2023-10-13T09:55:05;99443.94;;;19.13;84.69
52745;BME280;38637;49.984;20.426;2023-10-13T09:57:36;99444.78;;;19.14;84.08
52745;BME280;38637;49.984;20.426;2023-10-13T10:00:15;99439.72;;;19.16;84.63
52745;BME280;38637;49.984;20.426;2023-10-13T10:02:55;99433.38;;;19.15;83.99
52745;BME280;38637;49.984;20.426;2023-10-13T10:05:24;99436.63;;;19.17;83.86
52745;BME280;38637;49.984;20.426;2023-10-13T10:07:57;99440.09;;;19.23;84.53
52745;BME280;38637;49.984;20.426;2023-10-13T10:13:53;99437.03;;;19.33;84.43
52745;BME280;38637;49.984;20.426;2023-10-13T10:19:01;99434.97;;;19.39;83.35
52745;BME280;38637;49.984;20.426;2023-10-13T10:21:34;99429.94;;;19.41;83.26
52745;BME280;38637;49.984;20.426;2023-10-13T10:24:01;99430.09;;;19.44;82.47
52745;BME280;38637;49.984;20.426;2023-10-13T10:26:38;99415.09;;;19.45;81.78
52745;BME280;38637;49.984;20.426;2023-10-13T10:29:10;99420.34;;;19.47;83.15
52745;BME280;38637;49.984;20.426;2023-10-13T10:31:36;99417.75;;;19.50;82.60
52745;BME280;38637;49.984;20.426;2023-10-13T10:34:12;99416.28;;;19.53;82.63
52745;BME280;38637;49.984;20.426;2023-10-13T10:36:38;99406.50;;;19.56;82.44
52745;BME280;38637;49.984;20.426;2023-10-13T10:39:08;99410.75;;;19.62;82.72
52745;BME280;38637;49.984;20.426;2023-10-13T10:41:34;99404.91;;;19.63;82.32
52745;BME280;38637;49.984;20.426;2023-10-13T10:44:13;99404.31;;;19.66;81.85
52745;BME280;38637;49.984;20.426;2023-10-13T10:46:42;99404.16;;;19.71;82.14
52745;BME280;38637;49.984;20.426;2023-10-13T10:49:20;99400.41;;;19.76;81.26
52745;BME280;38637;49.984;20.426;2023-10-13T10:51:57;99395.03;;;19.80;81.42
52745;BME280;38637;49.984;20.426;2023-10-13T10:54:25;99397.81;;;19.80;80.73
52745;BME280;38637;49.984;20.426;2023-10-13T10:56:58;99401.91;;;19.91;81.56
52745;BME280;38637;49.984;20.426;2023-10-13T10:59:39;99393.94;;;19.98;80.80
52745;BME280;38637;49.984;20.426;2023-10-13T11:02:06;99394.94;;;20.02;79.47
52745;BME280;38637;49.984;20.426;2023-10-13T11:04:32;99393.13;;;20.06;77.84
52745;BME280;38637;49.984;20.426;2023-10-13T11:07:06;99386.94;;;20.09;78.63
52745;BME280;38637;49.984;20.426;2023-10-13T11:09:33;99375.53;;;20.11;77.68
52745;BME280;38637;49.984;20.426;2023-10-13T11:14:44;99386.31;;;20.21;78.09
52745;BME280;38637;49.984;20.426;2023-10-13T11:17:19;99383.69;;;20.25;78.74
52745;BME280;38637;49.984;20.426;2023-10-13T11:19:50;99380.78;;;20.30;78.49
52745;BME280;38637;49.984;20.426;2023-10-13T11:22:21;99382.56;;;20.34;79.08
52745;BME280;38637;49.984;20.426;2023-10-13T11:25:07;99359.22;;;20.35;78.63
52745;BME280;38637;49.984;20.426;2023-10-13T11:27:41;99372.75;;;20.37;78.32
52745;BME280;38637;49.984;20.426;2023-10-13T11:30:19;99362.31;;;20.34;77.72
52745;BME280;38637;49.984;20.426;2023-10-13T11:33:01;99368.38;;;20.36;78.56
52745;BME280;38637;49.984;20.426;2023-10-13T11:35:38;99360.38;;;20.34;77.37
52745;BME280;38637;49.984;20.426;2023-10-13T11:41:02;99368.69;;;20.34;77.95
52745;BME280;38637;49.984;20.426;2023-10-13T11:43:31;99367.53;;;20.35;77.88
52745;BME280;38637;49.984;20.426;2023-10-13T11:46:01;99360.88;;;20.36;77.99
52745;BME280;38637;49.984;20.426;2023-10-13T11:48:43;99350.88;;;20.35;76.18
52745;BME280;38637;49.984;20.426;2023-10-13T11:51:12;99353.34;;;20.37;76.43
52745;BME280;38637;49.984;20.426;2023-10-13T11:53:51;99353.84;;;20.39;77.38
52745;BME280;38637;49.984;20.426;2023-10-13T11:56:18;99358.25;;;20.40;76.72
52745;BME280;38637;49.984;20.426;2023-10-13T11:58:46;99350.06;;;20.43;75.88
52745;BME280;38637;49.984;20.426;2023-10-13T12:01:12;99342.25;;;20.46;75.76
52745;BME280;38637;49.984;20.426;2023-10-13T12:03:41;99346.81;;;20.50;77.15
52745;BME280;38637;49.984;20.426;2023-10-13T12:06:26;99347.31;;;20.52;76.75
52745;BME280;38637;49.984;20.426;2023-10-13T12:09:10;99340.13;;;20.51;75.96
52745;BME280;38637;49.984;20.426;2023-10-13T12:11:45;99344.22;;;20.62;76.35
52745;BME280;38637;49.984;20.426;2023-10-13T12:14:14;99335.06;;;20.62;74.97
52745;BME280;38637;49.984;20.426;2023-10-13T12:16:49;99345.00;;;20.72;74.07
52745;BME280;38637;49.984;20.426;2023-10-13T12:19:17;99338.47;;;20.76;73.29
52745;BME280;38637;49.984;20.426;2023-10-13T12:21:45;99330.97;;;20.77;73.93
52745;BME280;38637;49.984;20.426;2023-10-13T12:24:13;99331.91;;;20.81;73.97
52745;BME280;38637;49.984;20.426;2023-10-13T12:26:49;99334.84;;;20.84;74.56
52745;BME280;38637;49.984;20.426;2023-10-13T12:29:22;99322.47;;;20.82;74.71
52745;BME280;38637;49.984;20.426;2023-10-13T12:31:48;99325.53;;;20.89;74.64
52745;BME280;38637;49.984;20.426;2023-10-13T12:34:26;99312.47;;;20.89;73.80
52745;BME280;38637;49.984;20.426;2023-10-13T12:37:12;99317.69;;;20.91;75.17
52745;BME280;38637;49.984;20.426;2023-10-13T12:39:57;99318.50;;;20.92;74.66
52745;BME280;38637;49.984;20.426;2023-10-13T12:42:41;99310.50;;;20.90;74.45
52745;BME280;38637;49.984;20.426;2023-10-13T12:45:25;99316.06;;;20.90;75.51
52745;BME280;38637;49.984;20.426;2023-10-13T12:48:08;99317.22;;;20.89;75.18
52745;BME280;38637;49.984;20.426;2023-10-13T12:50:52;99309.69;;;20.89;74.56
52745;BME280;38637;49.984;20.426;2023-10-13T12:53:32;99314.09;;;20.91;74.57
52745;BME280;38637;49.984;20.426;2023-10-13T12:55:58;99317.69;;;20.91;75.96
52745;BME280;38637;49.984;20.426;2023-10-13T12:58:23;99310.84;;;20.88;75.01
52745;BME280;38637;49.984;20.426;2023-10-13T13:00:52;99311.97;;;20.87;75.51
52745;BME280;38637;49.984;20.426;2023-10-13T13:03:24;99307.94;;;20.85;76.13
52745;BME280;38637;49.984;20.426;2023-10-13T13:05:54;99306.28;;;20.84;75.75
52745;BME280;38637;49.984;20.426;2023-10-13T13:08:21;99297.28;;;20.87;75.61
52745;BME280;38637;49.984;20.426;2023-10-13T13:10:48;99302.53;;;20.88;74.90
52745;BME280;38637;49.984;20.426;2023-10-13T13:13:13;99299.75;;;20.88;75.82
52745;BME280;38637;49.984;20.426;2023-10-13T13:15:42;99301.38;;;20.89;75.56
52745;BME280;38637;49.984;20.426;2023-10-13T13:18:08;99291.06;;;20.90;75.82
52745;BME280;38637;49.984;20.426;2023-10-13T13:20:39;99283.72;;;20.94;76.59
52745;BME280;38637;49.984;20.426;2023-10-13T13:23:05;99287.63;;;20.93;76.54
52745;BME280;38637;49.984;20.426;2023-10-13T13:25:30;99280.78;;;20.91;76.28
52745;BME280;38637;49.984;20.426;2023-10-13T13:27:58;99291.56;;;20.92;75.30
52745;BME280;38637;49.984;20.426;2023-10-13T13:30:29;99274.09;;;20.92;74.85
52745;BME280;38637;49.984;20.426;2023-10-13T13:32:59;99286.81;;;20.93;74.38
52745;BME280;38637;49.984;20.426;2023-10-13T13:35:29;99294.84;;;20.94;75.03
52745;BME280;38637;49.984;20.426;2023-10-13T13:38:00;99282.06;;;20.93;73.97